createdAt,value
2017-09-12T00:00:33.410Z,17.06
2017-09-12T00:01:13.998Z,17.15
2017-09-12T00:01:54.555Z,17.11
2017-09-12T00:02:35.110Z,17.14
2017-09-12T00:03:15.667Z,17.07
2017-09-12T00:03:56.214Z,17.07
2017-09-12T00:04:36.780Z,17.01
2017-09-12T00:05:17.336Z,17.01
2017-09-12T00:05:57.901Z,16.97
2017-09-12T00:06:38.443Z,16.85
2017-09-12T00:07:18.990Z,16.93
2017-09-12T00:07:59.591Z,16.85
2017-09-12T00:08:40.080Z,16.93
2017-09-12T00:09:20.661Z,16.83
2017-09-12T00:10:01.214Z,16.85
2017-09-12T00:10:41.786Z,16.83
2017-09-12T00:11:22.347Z,16.73
2017-09-12T00:12:02.924Z,16.91
2017-09-12T00:12:43.509Z,16.81
2017-09-12T00:13:24.114Z,16.86
2017-09-12T00:14:04.696Z,16.85
2017-09-12T00:14:45.243Z,16.89
2017-09-12T00:15:25.860Z,16.91
2017-09-12T00:16:06.434Z,16.96
2017-09-12T00:16:47.008Z,17
2017-09-12T00:17:27.571Z,16.97
2017-09-12T00:18:08.120Z,16.96
2017-09-12T00:18:48.674Z,17
2017-09-12T00:19:29.238Z,16.97
2017-09-12T00:20:09.816Z,17.04
2017-09-12T00:20:50.386Z,17.07
2017-09-12T00:21:30.946Z,16.96
2017-09-12T00:22:11.514Z,17.03
2017-09-12T00:22:52.062Z,16.98
2017-09-12T00:23:32.636Z,16.98
2017-09-12T00:24:13.219Z,16.96
2017-09-12T00:24:53.800Z,16.96
2017-09-12T00:25:34.362Z,16.93
2017-09-12T00:26:14.923Z,16.88
2017-09-12T00:26:55.486Z,16.86
2017-09-12T00:27:36.065Z,16.86
2017-09-12T00:28:16.613Z,16.78
2017-09-12T00:28:57.167Z,16.83
2017-09-12T00:29:37.716Z,16.86
2017-09-12T00:30:18.265Z,16.82
2017-09-12T00:30:58.818Z,16.76
2017-09-12T00:31:39.371Z,16.83
2017-09-12T00:32:19.953Z,16.76
2017-09-12T00:33:00.499Z,16.76
2017-09-12T00:33:41.067Z,16.79
2017-09-12T00:34:21.623Z,16.86
2017-09-12T00:35:02.176Z,16.79
2017-09-12T00:35:42.767Z,16.82
2017-09-12T00:36:23.329Z,16.85
2017-09-12T00:37:03.898Z,16.88
2017-09-12T00:37:44.461Z,16.81
2017-09-12T00:38:25.024Z,16.79
2017-09-12T00:39:05.591Z,16.78
2017-09-12T00:39:46.195Z,16.79
2017-09-12T00:40:26.752Z,16.79
2017-09-12T00:41:07.328Z,16.89
2017-09-12T00:41:47.888Z,16.86
2017-09-12T00:42:28.449Z,16.86
2017-09-12T00:43:09.017Z,16.91
2017-09-12T00:43:49.586Z,16.88
2017-09-12T00:44:30.146Z,16.94
2017-09-12T00:45:10.698Z,16.89
2017-09-12T00:45:51.269Z,16.93
2017-09-12T00:46:31.829Z,16.86
2017-09-12T00:47:12.388Z,16.85
2017-09-12T00:47:52.945Z,16.86
2017-09-12T00:48:33.497Z,16.83
2017-09-12T00:49:14.052Z,16.79
2017-09-12T00:49:54.599Z,16.75
2017-09-12T00:50:35.144Z,16.73
2017-09-12T00:51:15.703Z,16.88
2017-09-12T00:51:56.282Z,16.85
2017-09-12T00:52:36.848Z,16.81
2017-09-12T00:53:17.429Z,16.79
2017-09-12T00:53:57.989Z,16.91
2017-09-12T00:54:38.553Z,16.85
2017-09-12T00:55:19.113Z,16.85
2017-09-12T00:55:59.704Z,16.86
2017-09-12T00:56:40.267Z,16.76
2017-09-12T00:57:20.847Z,16.83
2017-09-12T00:58:01.417Z,16.83
2017-09-12T00:58:41.980Z,16.73
2017-09-12T00:59:22.543Z,16.86
2017-09-12T01:00:03.115Z,16.93
2017-09-12T01:00:43.761Z,16.97
2017-09-12T01:01:24.346Z,16.96
2017-09-12T01:02:04.898Z,16.98
2017-09-12T01:02:45.469Z,16.96
2017-09-12T01:03:26.038Z,16.98
2017-09-12T01:04:06.571Z,16.83
2017-09-12T01:04:47.136Z,16.93
2017-09-12T01:05:27.682Z,16.98
2017-09-12T01:06:08.233Z,17.01
2017-09-12T01:06:48.787Z,16.98
2017-09-12T01:07:29.346Z,16.93
2017-09-12T01:08:09.901Z,16.97
2017-09-12T01:08:50.437Z,17.01
2017-09-12T01:09:30.982Z,17.03
2017-09-12T01:10:11.547Z,17
2017-09-12T01:10:52.104Z,16.98
2017-09-12T01:11:32.659Z,17.11
2017-09-12T01:12:13.223Z,17.12
2017-09-12T01:12:53.782Z,17.11
2017-09-12T01:13:34.336Z,17.08
2017-09-12T01:14:14.896Z,17.18
2017-09-12T01:14:55.493Z,17.25
2017-09-12T01:15:36.028Z,17.23
2017-09-12T01:16:16.638Z,17.19
2017-09-12T01:16:57.161Z,17.23
2017-09-12T01:17:37.729Z,17.21
2017-09-12T01:18:18.299Z,17.22
2017-09-12T01:18:58.859Z,17.23
2017-09-12T01:19:39.414Z,17.36
2017-09-12T01:20:19.992Z,17.3
2017-09-12T01:21:00.545Z,17.21
2017-09-12T01:21:41.112Z,17.38
2017-09-12T01:22:21.699Z,17.36
2017-09-12T01:23:02.252Z,17.33
2017-09-12T01:23:42.813Z,17.4
2017-09-12T01:24:23.386Z,17.37
2017-09-12T01:25:03.942Z,17.4
2017-09-12T01:25:44.529Z,17.44
2017-09-12T01:26:25.083Z,17.22
2017-09-12T01:27:05.648Z,17.21
2017-09-12T01:27:46.209Z,17.21
2017-09-12T01:28:26.769Z,17.22
2017-09-12T01:29:07.326Z,17.44
2017-09-12T01:29:47.917Z,17.4
2017-09-12T01:30:28.479Z,17.46
2017-09-12T01:31:09.049Z,17.46
2017-09-12T01:31:49.607Z,17.46
2017-09-12T01:32:30.168Z,17.52
2017-09-12T01:33:10.724Z,17.54
2017-09-12T01:33:51.301Z,17.54
2017-09-12T01:34:31.863Z,17.44
2017-09-12T01:35:12.423Z,17.51
2017-09-12T01:35:52.997Z,17.46
2017-09-12T01:36:33.567Z,17.43
2017-09-12T01:37:14.125Z,17.52
2017-09-12T01:37:54.693Z,17.49
2017-09-12T01:38:35.254Z,17.44
2017-09-12T01:39:15.832Z,17.49
2017-09-12T01:39:56.391Z,17.41
2017-09-12T01:40:36.954Z,17.49
2017-09-12T01:41:17.509Z,17.56
2017-09-12T01:41:58.101Z,17.41
2017-09-12T01:42:38.657Z,17.43
2017-09-12T01:43:19.225Z,17.41
2017-09-12T01:43:59.790Z,17.37
2017-09-12T01:44:40.375Z,17.43
2017-09-12T01:45:20.925Z,17.49
2017-09-12T01:46:01.500Z,17.43
2017-09-12T01:46:42.042Z,17.48
2017-09-12T01:47:22.614Z,17.49
2017-09-12T01:48:03.172Z,17.41
2017-09-12T01:48:43.759Z,17.49
2017-09-12T01:49:24.316Z,17.38
2017-09-12T01:50:04.881Z,17.4
2017-09-12T01:50:45.436Z,17.51
2017-09-12T01:51:26.030Z,17.51
2017-09-12T01:52:06.600Z,17.44
2017-09-12T01:52:47.167Z,17.44
2017-09-12T01:53:27.729Z,17.48
2017-09-12T01:54:08.308Z,17.44
2017-09-12T01:54:48.861Z,17.46
2017-09-12T01:55:29.422Z,17.48
2017-09-12T01:56:09.995Z,17.43
2017-09-12T01:56:50.559Z,17.36
2017-09-12T01:57:31.120Z,17.44
2017-09-12T01:58:11.683Z,17.46
2017-09-12T01:58:52.239Z,17.44
2017-09-12T01:59:32.814Z,17.36
2017-09-12T02:00:13.373Z,17.46
2017-09-12T02:00:53.928Z,17.46
2017-09-12T02:01:34.500Z,17.41
2017-09-12T02:02:15.077Z,17.46
2017-09-12T02:02:55.629Z,17.44
2017-09-12T02:03:36.197Z,17.44
2017-09-12T02:04:16.787Z,17.54
2017-09-12T02:04:57.347Z,17.51
2017-09-12T02:05:37.928Z,17.4
2017-09-12T02:06:18.500Z,17.46
2017-09-12T02:06:59.080Z,17.46
2017-09-12T02:07:39.644Z,17.44
2017-09-12T02:08:20.229Z,17.43
2017-09-12T02:09:00.794Z,17.49
2017-09-12T02:09:41.352Z,17.48
2017-09-12T02:10:21.905Z,17.51
2017-09-12T02:11:02.470Z,17.46
2017-09-12T02:11:43.027Z,17.38
2017-09-12T02:12:23.592Z,17.48
2017-09-12T02:13:04.211Z,17.49
2017-09-12T02:13:44.754Z,17.52
2017-09-12T02:14:25.319Z,17.46
2017-09-12T02:15:05.875Z,17.54
2017-09-12T02:15:46.436Z,17.48
2017-09-12T02:16:26.975Z,17.49
2017-09-12T09:00:56.607Z,20.54
2017-09-12T09:01:37.308Z,20.48
2017-09-12T09:02:17.901Z,20.48
2017-09-12T09:02:58.496Z,20.5
2017-09-12T09:03:39.091Z,20.42
2017-09-12T09:04:19.632Z,20.47
2017-09-12T09:05:00.213Z,20.38
2017-09-12T09:05:40.789Z,20.42
2017-09-12T09:06:21.429Z,20.39
2017-09-12T09:07:02.104Z,20.48
2017-09-12T09:07:43.233Z,20.38
2017-09-12T09:08:24.834Z,20.48
2017-09-12T09:09:05.918Z,20.58
2017-09-12T09:09:48.576Z,20.58
2017-09-12T09:10:29.276Z,20.59
2017-09-12T09:11:12.731Z,20.54
2017-09-12T09:11:53.224Z,20.5
2017-09-12T09:12:33.799Z,20.41
2017-09-12T09:13:14.571Z,20.33
2017-09-12T09:13:55.258Z,20.32
2017-09-12T09:14:38.591Z,20.33
2017-09-12T09:15:20.670Z,20.42
2017-09-12T09:16:01.208Z,20.43
2017-09-12T09:16:41.781Z,20.47
2017-09-12T09:17:22.465Z,20.52
2017-09-12T09:18:03.304Z,20.7
2017-09-12T09:18:43.795Z,20.84
2017-09-12T09:19:24.457Z,20.84
2017-09-12T09:20:04.994Z,20.89
2017-09-12T09:20:45.598Z,20.97
2017-09-12T09:22:34.833Z,21.06
2017-09-12T09:23:15.444Z,21.03
2017-09-12T09:23:56.025Z,21.19
2017-09-12T09:24:36.598Z,21.16
2017-09-12T09:25:17.174Z,21.14
2017-09-12T09:25:57.820Z,21.03
2017-09-12T09:26:38.495Z,21.1
2017-09-12T09:27:19.288Z,21.01
2017-09-12T09:28:02.199Z,20.97
2017-09-12T09:28:43.086Z,20.89
2017-09-12T09:29:23.866Z,20.79
2017-09-12T09:30:04.531Z,20.62
2017-09-12T09:30:45.068Z,20.66
2017-09-12T09:31:25.942Z,20.87
2017-09-12T09:32:06.572Z,20.85
2017-09-12T09:32:47.154Z,20.92
2017-09-12T09:33:27.672Z,20.73
2017-09-12T09:34:08.589Z,20.7
2017-09-12T09:34:49.171Z,20.77
2017-09-12T09:35:29.825Z,20.8
2017-09-12T09:36:10.335Z,20.79
2017-09-12T09:36:50.920Z,20.82
2017-09-12T09:37:31.534Z,20.84
2017-09-12T09:38:12.143Z,20.79
2017-09-12T09:38:52.706Z,20.7
2017-09-12T09:39:33.308Z,20.88
2017-09-12T09:40:13.803Z,20.82
2017-09-12T09:40:54.487Z,20.84
2017-09-12T09:41:35.204Z,20.97
2017-09-12T09:42:15.768Z,21.03
2017-09-12T09:42:56.319Z,21.03
2017-09-12T09:43:36.861Z,21.06
2017-09-12T09:44:17.629Z,20.92
2017-09-12T09:44:58.242Z,20.87
2017-09-12T09:45:38.753Z,20.72
2017-09-12T09:46:19.334Z,20.73
2017-09-12T09:46:59.902Z,20.74
2017-09-12T09:47:40.361Z,20.54
2017-09-12T09:48:21.428Z,20.72
2017-09-12T09:49:01.915Z,20.69
2017-09-12T09:49:42.496Z,20.87
2017-09-12T09:50:23.119Z,20.98
2017-09-12T09:51:03.630Z,20.84
2017-09-12T09:51:44.190Z,20.82
2017-09-12T09:52:24.801Z,20.94
2017-09-12T09:53:05.452Z,21.07
2017-09-12T09:53:46.057Z,20.98
2017-09-12T09:54:26.622Z,21.12
2017-09-12T09:55:07.168Z,21.29
2017-09-12T09:55:47.906Z,21.34
2017-09-12T09:56:28.787Z,21.29
2017-09-12T09:57:09.340Z,21.35
2017-09-12T09:57:49.928Z,21.34
2017-09-12T09:58:30.612Z,21.46
2017-09-12T09:59:11.219Z,21.4
2017-09-12T09:59:51.826Z,21.5
2017-09-12T10:00:32.278Z,21.47
2017-09-12T10:01:12.965Z,21.62
2017-09-12T10:01:53.522Z,21.72
2017-09-12T10:02:34.419Z,21.56
2017-09-12T10:03:14.951Z,21.5
2017-09-12T10:03:55.703Z,21.43
2017-09-12T10:04:36.214Z,21.47
2017-09-12T10:05:16.719Z,21.47
2017-09-12T10:05:57.331Z,21.4
2017-09-12T10:06:37.869Z,21.47
2017-09-12T10:07:18.494Z,21.37
2017-09-12T10:07:58.946Z,21.4
2017-09-12T10:08:39.459Z,21.52
2017-09-12T10:09:20.003Z,21.52
2017-09-12T10:10:00.759Z,21.47
2017-09-12T10:10:41.445Z,21.49
2017-09-12T10:11:22.106Z,21.54
2017-09-12T10:12:02.666Z,21.56
2017-09-12T10:12:43.152Z,21.49
2017-09-12T10:13:23.696Z,21.62
2017-09-12T10:14:04.372Z,21.69
2017-09-12T10:14:44.862Z,21.67
2017-09-12T10:15:25.442Z,21.68
2017-09-12T10:16:06.020Z,21.8
2017-09-12T10:16:46.551Z,21.86
2017-09-12T10:17:27.108Z,21.84
2017-09-12T10:18:07.639Z,21.72
2017-09-12T10:18:48.216Z,21.68
2017-09-12T10:19:28.728Z,21.44
2017-09-12T10:20:09.259Z,21.67
2017-09-12T10:20:49.844Z,21.58
2017-09-12T10:21:30.519Z,21.59
2017-09-12T10:22:11.036Z,21.67
2017-09-12T10:22:51.708Z,21.64
2017-09-12T10:23:32.296Z,21.71
2017-09-12T10:24:12.854Z,21.84
2017-09-12T10:24:53.332Z,21.84
2017-09-12T10:25:33.871Z,21.69
2017-09-12T10:26:14.400Z,21.62
2017-09-12T10:26:54.945Z,21.72
2017-09-12T10:27:35.509Z,21.83
2017-09-12T10:28:16.027Z,21.79
2017-09-12T10:28:56.572Z,21.82
2017-09-12T10:29:37.066Z,21.92
2017-09-12T10:30:17.637Z,21.91
2017-09-12T10:30:58.189Z,21.94
2017-09-12T10:31:38.698Z,21.88
2017-09-12T10:32:19.290Z,21.74
2017-09-12T10:32:59.912Z,21.72
2017-09-12T10:33:40.555Z,21.62
2017-09-12T10:34:21.426Z,21.53
2017-09-12T10:35:01.973Z,21.58
2017-09-12T10:35:42.578Z,21.58
2017-09-12T10:36:23.037Z,21.58
2017-09-12T10:37:03.602Z,21.47
2017-09-12T10:37:44.370Z,21.44
2017-09-12T10:38:24.905Z,21.42
2017-09-12T10:39:05.600Z,21.35
2017-09-12T10:39:46.132Z,21.35
2017-09-12T10:40:26.672Z,21.47
2017-09-12T10:41:07.204Z,21.56
2017-09-12T10:41:47.910Z,21.46
2017-09-12T10:42:28.493Z,21.53
2017-09-12T10:43:09.029Z,21.42
2017-09-12T10:43:49.553Z,21.28
2017-09-12T10:44:30.193Z,21.27
2017-09-12T10:45:10.683Z,21.37
2017-09-12T10:45:51.297Z,21.35
2017-09-12T10:46:31.792Z,21.34
2017-09-12T10:47:12.344Z,21.31
2017-09-12T10:47:52.898Z,21.32
2017-09-12T10:48:33.447Z,21.32
2017-09-12T10:49:14.011Z,21.44
2017-09-12T10:49:54.596Z,21.46
2017-09-12T10:50:35.530Z,21.5
2017-09-12T10:51:15.889Z,21.56
2017-09-12T10:51:56.426Z,21.67
2017-09-12T10:52:37.320Z,21.59
2017-09-12T10:53:18.352Z,21.65
2017-09-12T10:53:58.788Z,21.65
2017-09-12T10:54:39.407Z,21.74
2017-09-12T10:55:20.348Z,21.75
2017-09-12T10:56:00.816Z,21.75
2017-09-12T10:56:41.470Z,21.82
2017-09-12T10:57:22.073Z,21.83
2017-09-12T10:58:02.608Z,21.8
2017-09-12T10:58:43.201Z,21.96
2017-09-12T10:59:24.167Z,21.94
2017-09-12T11:00:05.321Z,22.02
2017-09-12T11:00:45.814Z,22.15
2017-09-12T11:01:26.382Z,22.12
2017-09-12T11:02:07.331Z,22.17
2017-09-12T11:02:47.842Z,22.28
2017-09-12T11:03:28.458Z,22.2
2017-09-12T11:04:11.221Z,22.27
2017-09-12T11:04:51.823Z,22.4
2017-09-12T11:05:32.371Z,22.28
2017-09-12T11:06:12.918Z,22.57
2017-09-12T11:06:55.128Z,22.57
2017-09-12T11:49:04.909Z,20.79
2017-09-12T11:49:46.421Z,20.82
2017-09-12T11:50:26.962Z,20.82
2017-09-12T11:51:07.606Z,20.69
2017-09-12T11:51:48.163Z,20.61
2017-09-12T11:52:28.678Z,20.57
2017-09-12T11:53:09.487Z,20.57
2017-09-12T12:09:32.274Z,20.58
2017-09-12T12:13:28.309Z,20.72
2017-09-12T12:14:10.970Z,20.74
2017-09-12T12:14:51.502Z,20.84
2017-09-12T12:15:32.075Z,20.8
2017-09-12T12:16:12.606Z,20.89
2017-09-12T12:16:53.256Z,20.89
2017-09-12T12:17:35.042Z,20.98
2017-09-12T12:19:13.463Z,21.19
2017-09-12T12:19:54.016Z,21.14
2017-09-12T12:20:34.588Z,21.19
2017-09-12T12:21:15.143Z,21.27
2017-09-12T12:21:55.711Z,21.24
2017-09-12T12:22:36.291Z,21.24
2017-09-12T12:23:16.825Z,21.04
2017-09-12T12:23:57.402Z,21.06
2017-09-12T12:24:48.153Z,20.99
2017-09-12T12:25:28.710Z,21.04
2017-09-12T12:26:09.349Z,21.06
2017-09-12T12:26:49.885Z,21.07
2017-09-12T12:27:30.627Z,21.06
2017-09-12T12:28:11.151Z,21.1
2017-09-12T12:28:51.868Z,21.17
2017-09-12T12:29:32.283Z,21.12
2017-09-12T12:30:13.697Z,21.12
2017-09-12T12:30:54.232Z,21.25
2017-09-12T12:31:34.796Z,21.27
2017-09-12T12:32:15.351Z,21.35
2017-09-12T12:32:55.895Z,21.56
2017-09-12T12:33:36.553Z,21.74
2017-09-12T12:34:17.101Z,21.71
2017-09-12T12:34:57.654Z,21.79
2017-09-12T12:35:38.458Z,21.79
2017-09-12T12:36:19.014Z,21.77
2017-09-12T12:36:59.586Z,21.61
2017-09-12T12:37:40.146Z,21.67
2017-09-12T12:38:20.718Z,21.61
2017-09-12T12:39:01.277Z,21.54
2017-09-12T12:39:41.849Z,21.5
2017-09-12T12:40:22.380Z,21.47
2017-09-12T12:41:02.929Z,21.25
2017-09-12T12:41:43.479Z,21.31
2017-09-12T12:42:24.062Z,21.34
2017-09-12T12:43:04.609Z,21.34
2017-09-12T12:43:45.178Z,21.43
2017-09-12T12:44:25.758Z,21.49
2017-09-12T12:45:06.332Z,21.46
2017-09-12T12:45:46.901Z,21.47
2017-09-12T12:46:27.405Z,21.5
2017-09-12T12:47:07.985Z,21.62
2017-09-12T12:47:48.559Z,21.64
2017-09-12T12:48:29.120Z,21.56
2017-09-12T12:49:09.673Z,21.67
2017-09-12T12:49:50.282Z,21.58
2017-09-12T12:50:30.761Z,21.71
2017-09-12T12:51:11.332Z,21.82
2017-09-12T12:51:51.878Z,21.64
2017-09-12T12:52:32.498Z,21.61
2017-09-12T12:53:13.044Z,21.72
2017-09-12T12:53:53.632Z,21.82
2017-09-12T12:54:34.187Z,21.83
2017-09-12T12:55:14.734Z,21.83
2017-09-12T12:55:55.300Z,21.84
2017-09-12T12:56:35.843Z,21.82
2017-09-12T12:57:16.412Z,21.9
2017-09-12T12:57:56.991Z,22.1
2017-09-12T12:58:37.563Z,22.05
2017-09-12T12:59:18.129Z,22.05
2017-09-12T12:59:58.889Z,21.9
2017-09-12T13:00:39.345Z,21.98
2017-09-12T13:01:19.913Z,22.02
2017-09-12T13:02:00.466Z,22.12
2017-09-12T13:02:40.973Z,22.14
2017-09-12T13:03:21.532Z,22.03
2017-09-12T13:04:02.097Z,22.14
2017-09-12T13:04:42.742Z,22.03
2017-09-12T13:05:23.594Z,22
2017-09-12T13:06:04.156Z,22.07
2017-09-12T13:06:44.671Z,22.07
2017-09-12T13:07:25.207Z,22.12
2017-09-12T13:08:05.768Z,22.09
2017-09-12T13:08:46.340Z,22.18
2017-09-12T13:09:26.894Z,22.2
2017-09-12T13:10:07.458Z,22.18
2017-09-12T13:10:48.017Z,22.28
2017-09-12T13:11:28.559Z,22.33
2017-09-12T13:12:09.184Z,22.31
2017-09-12T13:12:49.675Z,22.37
2017-09-12T13:13:30.293Z,22.52
2017-09-12T13:14:10.858Z,22.49
2017-09-12T13:14:51.379Z,22.46
2017-09-12T13:15:32.045Z,22.4
2017-09-12T13:16:12.607Z,22.51
2017-09-12T13:16:53.209Z,22.47
2017-09-12T13:17:33.761Z,22.42
2017-09-12T13:18:14.295Z,22.3
2017-09-12T13:18:54.861Z,22.27
2017-09-12T13:19:35.410Z,22.21
2017-09-12T13:20:15.956Z,22.27
2017-09-12T13:20:56.483Z,22.24
2017-09-12T13:21:37.072Z,22.18
2017-09-12T13:22:17.688Z,21.94
2017-09-12T13:22:58.213Z,22.03
2017-09-12T13:23:38.754Z,22
2017-09-12T13:24:19.318Z,22.02
2017-09-12T13:24:59.862Z,21.92
2017-09-12T13:25:40.461Z,21.96
2017-09-12T13:26:20.988Z,21.99
2017-09-12T13:27:01.635Z,21.94
2017-09-12T13:27:42.346Z,21.74
2017-09-12T13:28:22.918Z,21.65
2017-09-12T13:29:03.475Z,21.69
2017-09-12T13:29:44.122Z,21.61
2017-09-12T13:30:24.692Z,21.46
2017-09-12T13:31:05.244Z,21.42
2017-09-12T13:31:45.761Z,21.29
2017-09-12T13:32:26.369Z,21.34
2017-09-12T13:33:06.916Z,21.29
2017-09-12T13:33:47.470Z,21.37
2017-09-12T13:34:28.018Z,21.31
2017-09-12T13:35:08.565Z,21.34
2017-09-12T13:35:49.126Z,21.34
2017-09-12T13:36:29.710Z,21.25
2017-09-12T13:37:10.248Z,21.13
2017-09-12T13:37:50.786Z,21.14
2017-09-12T13:38:31.331Z,21.14
2017-09-12T13:39:11.879Z,21.13
2017-09-12T13:39:52.488Z,21.17
2017-09-12T13:40:33.084Z,21.09
2017-09-12T13:41:13.623Z,21.04
2017-09-12T13:41:54.360Z,20.94
2017-09-12T13:42:34.807Z,20.73
2017-09-12T13:43:15.371Z,20.58
2017-09-12T13:43:55.907Z,20.41
2017-09-12T13:44:36.482Z,20.42
2017-09-12T13:45:17.015Z,20.31
2017-09-12T13:45:57.552Z,20.31
2017-09-12T13:46:38.104Z,20.26
2017-09-12T13:47:18.664Z,20.06
2017-09-12T13:47:59.204Z,20.17
2017-09-12T13:48:39.754Z,20.13
2017-09-12T13:49:20.306Z,20.17
2017-09-12T13:50:00.870Z,20.01
2017-09-12T13:50:41.433Z,20.05
2017-09-12T13:51:21.960Z,20.08
2017-09-12T13:52:02.506Z,20.13
2017-09-12T13:52:43.049Z,20.16
2017-09-12T13:53:23.631Z,20.21
2017-09-12T13:54:04.162Z,20.23
2017-09-12T13:54:44.713Z,20.16
2017-09-12T13:55:25.319Z,20.24
2017-09-12T13:56:05.923Z,20.33
2017-09-12T13:56:46.476Z,20.38
2017-09-12T13:57:27.025Z,20.39
2017-09-12T13:58:07.585Z,20.51
2017-09-12T13:58:48.115Z,20.58
2017-09-12T13:59:28.614Z,20.58
2017-09-12T14:00:09.185Z,20.58
2017-09-12T14:00:49.710Z,20.57
2017-09-12T14:01:30.253Z,20.72
2017-09-12T14:02:10.794Z,20.84
2017-09-12T14:02:51.411Z,20.66
2017-09-12T14:03:31.882Z,20.84
2017-09-12T14:04:12.444Z,20.87
2017-09-12T14:04:53.094Z,20.8
2017-09-12T14:05:33.637Z,20.79
2017-09-12T14:06:14.184Z,20.85
2017-09-12T14:06:54.791Z,20.72
2017-09-12T14:07:35.331Z,20.69
2017-09-12T14:08:15.937Z,20.66
2017-09-12T14:08:56.469Z,20.41
2017-09-12T14:09:37.065Z,20.29
2017-09-12T14:10:17.602Z,20.29
2017-09-12T14:10:58.132Z,19.96
2017-09-12T14:11:38.717Z,19.8
2017-09-12T14:12:19.223Z,19.95
2017-09-12T14:12:59.761Z,19.84
2017-09-12T14:13:40.335Z,19.84
2017-09-12T14:14:20.876Z,19.71
2017-09-12T14:15:01.435Z,19.73
2017-09-12T14:15:42.058Z,19.78
2017-09-12T14:16:22.671Z,19.73
2017-09-12T14:17:03.218Z,19.81
2017-09-12T14:17:43.856Z,19.78
2017-09-12T14:18:25.211Z,19.81
2017-09-12T14:19:05.845Z,19.78
2017-09-12T14:19:46.440Z,19.73
2017-09-12T14:20:27.068Z,19.84
2017-09-12T14:21:07.621Z,19.81
2017-09-12T14:21:48.183Z,19.77
2017-09-12T14:22:28.667Z,19.91
2017-09-12T14:23:09.226Z,19.84
2017-09-12T14:23:49.786Z,19.87
2017-09-12T14:24:30.311Z,19.86
2017-09-12T14:25:10.880Z,19.92
2017-09-12T14:25:51.419Z,19.81
2017-09-12T14:26:32.000Z,19.81
2017-09-12T14:27:12.504Z,19.81
2017-09-12T14:27:53.234Z,19.86
2017-09-12T14:28:34.268Z,19.73
2017-09-12T14:29:14.790Z,19.74
2017-09-12T14:29:55.351Z,19.63
2017-09-12T14:30:35.882Z,19.59
2017-09-12T14:31:16.438Z,19.59
2017-09-12T14:31:57.007Z,19.36
2017-09-12T14:32:37.571Z,19.47
2017-09-12T14:33:18.167Z,19.58
2017-09-12T14:33:58.718Z,19.61
2017-09-12T14:34:39.281Z,19.56
2017-09-12T14:35:19.833Z,19.66
2017-09-12T14:36:00.410Z,19.73
2017-09-12T14:36:40.975Z,19.73
2017-09-12T14:37:21.554Z,19.88
2017-09-12T14:38:02.094Z,19.8
2017-09-12T14:38:42.682Z,19.8
2017-09-12T14:39:23.253Z,19.86
2017-09-12T14:40:03.788Z,19.87
2017-09-12T14:40:44.341Z,19.88
2017-09-12T14:41:24.895Z,19.84
2017-09-12T14:42:05.492Z,19.87
2017-09-12T14:42:46.050Z,19.81
2017-09-12T14:43:26.615Z,19.84
2017-09-12T14:44:07.165Z,19.78
2017-09-12T14:44:47.712Z,19.95
2017-09-12T14:45:28.288Z,19.87
2017-09-12T14:46:08.832Z,19.76
2017-09-12T14:46:49.409Z,19.81
2017-09-12T14:47:30.034Z,19.87
2017-09-12T14:48:10.590Z,19.87
2017-09-12T14:48:51.187Z,19.92
2017-09-12T14:49:31.754Z,20.01
2017-09-12T14:50:12.412Z,19.88
2017-09-12T14:50:52.932Z,19.96
2017-09-12T14:51:33.612Z,19.94
2017-09-12T14:52:14.204Z,19.71
2017-09-12T14:52:54.742Z,19.84
2017-09-12T14:53:35.409Z,19.88
2017-09-12T14:54:15.956Z,19.95
2017-09-12T14:54:56.513Z,19.87
2017-09-12T14:55:37.041Z,19.84
2017-09-12T14:56:17.656Z,19.91
2017-09-12T14:56:58.845Z,19.96
2017-09-12T14:57:39.370Z,20.08
2017-09-12T14:58:19.986Z,20.1
2017-09-12T14:59:00.540Z,20.03
2017-09-12T14:59:41.101Z,20.17
2017-09-12T15:00:21.784Z,20.2
2017-09-12T15:01:02.333Z,20.16
2017-09-12T15:01:42.871Z,20.21
2017-09-12T15:02:23.434Z,20.36
2017-09-12T15:03:04.130Z,20.47
2017-09-12T15:03:45.105Z,20.39
2017-09-12T15:04:25.595Z,20.33
2017-09-12T15:05:06.155Z,20.38
2017-09-12T15:05:46.693Z,20.42
2017-09-12T15:06:27.256Z,20.32
2017-09-12T15:07:07.781Z,20.43
2017-09-12T15:07:48.370Z,20.24
2017-09-12T15:08:29.819Z,20.32
2017-09-12T15:09:10.364Z,20.18
2017-09-12T15:09:50.994Z,20.13
2017-09-12T15:10:31.638Z,20.08
2017-09-12T15:11:12.211Z,20.16
2017-09-12T15:11:52.734Z,20.08
2017-09-12T15:12:33.264Z,20.17
2017-09-12T15:13:13.918Z,20.13
2017-09-12T15:13:54.551Z,20.06
2017-09-12T15:14:35.113Z,19.92
2017-09-12T15:15:15.664Z,19.87
2017-09-12T15:15:56.220Z,19.83
2017-09-12T15:16:36.755Z,19.55
2017-09-12T15:17:17.345Z,19.47
2017-09-12T15:17:58.080Z,19.5
2017-09-12T15:18:38.590Z,19.56
2017-09-12T15:19:19.255Z,19.61
2017-09-12T15:19:59.737Z,19.5
2017-09-12T15:20:40.330Z,19.43
2017-09-12T15:21:20.874Z,19.5
2017-09-12T15:22:01.392Z,19.58
2017-09-12T15:22:41.996Z,19.54
2017-09-12T15:23:22.517Z,19.5
2017-09-12T15:24:03.147Z,19.59
2017-09-12T15:24:43.661Z,19.48
2017-09-12T15:25:24.418Z,19.47
2017-09-12T15:26:04.917Z,19.55
2017-09-12T15:26:45.506Z,19.61
2017-09-12T15:27:26.058Z,19.62
2017-09-12T15:28:06.655Z,19.61
2017-09-12T15:28:47.228Z,19.58
2017-09-12T15:29:27.787Z,19.58
2017-09-12T15:30:08.910Z,19.62
2017-09-12T15:30:49.438Z,19.43
2017-09-12T15:31:30.051Z,19.4
2017-09-12T15:32:11.655Z,19.4
2017-09-12T15:32:52.171Z,19.44
2017-09-12T15:33:33.015Z,19.46
2017-09-12T15:34:15.290Z,19.43
2017-09-12T15:34:55.876Z,19.36
2017-09-12T15:35:36.412Z,19.32
2017-09-12T15:36:17.004Z,19.25
2017-09-12T15:36:57.538Z,19.21
2017-09-12T15:37:38.128Z,19.16
2017-09-12T15:38:18.765Z,19.22
2017-09-12T15:38:59.331Z,19.29
2017-09-12T15:39:39.865Z,19.31
2017-09-12T15:40:20.455Z,19.25
2017-09-12T15:41:01.205Z,19.25
2017-09-12T15:41:41.777Z,19.25
2017-09-12T15:42:22.356Z,19.23
2017-09-12T15:43:02.849Z,19.23
2017-09-12T15:43:43.475Z,19.18
2017-09-12T15:44:24.078Z,19.23
2017-09-12T15:45:04.823Z,19.22
2017-09-12T15:45:45.467Z,19.31
2017-09-12T15:46:25.978Z,19.29
2017-09-12T15:47:06.521Z,19.19
2017-09-12T15:47:47.143Z,19.22
2017-09-12T15:48:27.689Z,19.37
2017-09-12T15:49:08.434Z,19.44
2017-09-12T15:49:48.928Z,19.44
2017-09-12T15:50:29.494Z,19.44
2017-09-12T15:51:10.032Z,19.44
2017-09-12T15:51:50.632Z,19.43
2017-09-12T15:52:31.133Z,19.43
2017-09-12T15:53:11.715Z,19.55
2017-09-12T15:53:52.225Z,19.55
2017-09-12T15:54:32.803Z,19.62
2017-09-12T15:55:13.320Z,19.61
2017-09-12T15:55:53.838Z,19.59
2017-09-12T15:56:34.426Z,19.61
2017-09-12T15:57:14.982Z,19.65
2017-09-12T15:57:55.556Z,19.61
2017-09-12T15:58:36.097Z,19.56
2017-09-12T15:59:16.651Z,19.63
2017-09-12T15:59:57.193Z,19.63
2017-09-12T16:00:37.738Z,19.56
2017-09-12T16:01:18.288Z,19.54
2017-09-12T16:01:59.011Z,19.55
2017-09-12T16:02:39.475Z,19.51
2017-09-12T16:03:19.946Z,19.65
2017-09-12T16:04:00.470Z,19.58
2017-09-12T16:04:41.039Z,19.59
2017-09-12T16:05:21.596Z,19.56
2017-09-12T16:06:02.123Z,19.55
2017-09-12T16:06:42.688Z,19.54
2017-09-12T16:07:24.182Z,19.48
2017-09-12T16:08:04.664Z,19.46
2017-09-12T16:08:45.253Z,19.39
2017-09-12T16:09:25.769Z,19.31
2017-09-12T16:10:06.313Z,19.22
2017-09-12T16:10:47.701Z,19.32
2017-09-12T16:11:28.341Z,19.39
2017-09-12T16:12:08.910Z,19.36
2017-09-12T16:12:49.475Z,19.26
2017-09-12T16:13:30.018Z,19.25
2017-09-12T16:14:10.591Z,19.28
2017-09-12T16:14:51.174Z,19.21
2017-09-12T16:15:31.720Z,19.25
2017-09-12T16:16:12.746Z,19.22
2017-09-12T16:16:52.738Z,19.23
2017-09-12T16:17:33.341Z,19.19
2017-09-12T16:18:13.955Z,19.16
2017-09-12T16:18:54.721Z,19.18
2017-09-12T16:19:35.369Z,19.18
2017-09-12T16:20:15.720Z,19.11
2017-09-12T16:20:57.601Z,19.06
2017-09-12T16:21:38.242Z,19.02
2017-09-12T16:22:18.728Z,19.11
2017-09-12T16:22:59.309Z,19.1
2017-09-12T16:23:39.819Z,19.1
2017-09-12T16:24:20.463Z,19.02
2017-09-12T16:25:01.042Z,19.02
2017-09-12T16:25:41.664Z,19.04
2017-09-12T16:26:22.123Z,19.06
2017-09-12T16:27:02.694Z,19.1
2017-09-12T16:27:47.446Z,19.08
2017-09-12T16:28:28.036Z,19
2017-09-12T16:29:08.531Z,19.06
2017-09-12T16:29:49.075Z,19.07
2017-09-12T16:30:29.724Z,19
2017-09-12T16:31:10.281Z,19.08